sensor_id;sensor_type;location;lat;lon;timestamp;pressure;altitude;pressure_sealevel;temperature;humidity
34586;BME280;20816;50.950;11.108;2023-09-18T00:00:46;97981.59;;;21.82;82.73
34586;BME280;20816;50.950;11.108;2023-09-18T00:03:13;97970.91;;;21.82;82.76
34586;BME280;20816;50.950;11.108;2023-09-18T00:05:40;97970.16;;;21.69;82.95
34586;BME280;20816;50.950;11.108;2023-09-18T00:08:07;97969.53;;;21.65;83.31
34586;BME280;20816;50.950;11.108;2023-09-18T00:10:34;97963.13;;;21.68;83.41
34586;BME280;20816;50.950;11.108;2023-09-18T00:13:01;97957.50;;;21.71;83.71
34586;BME280;20816;50.950;11.108;2023-09-18T00:15:28;97948.75;;;21.69;83.75
34586;BME280;20816;50.950;11.108;2023-09-18T00:17:54;97950.94;;;21.64;83.75
34586;BME280;20816;50.950;11.108;2023-09-18T00:20:21;97950.09;;;21.63;84.22
34586;BME280;20816;50.950;11.108;2023-09-18T00:22:54;97948.25;;;21.52;84.13
34586;BME280;20816;50.950;11.108;2023-09-18T00:25:22;97947.72;;;21.47;85.21
34586;BME280;20816;50.950;11.108;2023-09-18T00:27:49;97950.41;;;21.47;84.59
34586;BME280;20816;50.950;11.108;2023-09-18T00:30:16;97938.97;;;21.34;85.75
34586;BME280;20816;50.950;11.108;2023-09-18T00:32:42;97935.78;;;21.29;85.70
34586;BME280;20816;50.950;11.108;2023-09-18T00:35:09;97937.22;;;21.33;85.98
34586;BME280;20816;50.950;11.108;2023-09-18T00:37:36;97934.81;;;21.30;86.33
34586;BME280;20816;50.950;11.108;2023-09-18T00:40:03;97922.34;;;21.18;86.66
34586;BME280;20816;50.950;11.108;2023-09-18T00:42:31;97915.53;;;21.14;87.01
34586;BME280;20816;50.950;11.108;2023-09-18T00:44:58;97914.16;;;21.32;86.25
34586;BME280;20816;50.950;11.108;2023-09-18T00:47:25;97911.00;;;21.27;86.35
34586;BME280;20816;50.950;11.108;2023-09-18T00:49:53;97908.00;;;21.19;86.15
34586;BME280;20816;50.950;11.108;2023-09-18T00:52:20;97903.53;;;21.19;86.48
34586;BME280;20816;50.950;11.108;2023-09-18T00:54:49;97901.44;;;21.12;86.79
34586;BME280;20816;50.950;11.108;2023-09-18T00:57:16;97894.84;;;21.05;86.98
34586;BME280;20816;50.950;11.108;2023-09-18T00:59:45;97891.72;;;21.11;86.67
34586;BME280;20816;50.950;11.108;2023-09-18T01:02:12;97890.19;;;20.95;87.31
34586;BME280;20816;50.950;11.108;2023-09-18T01:04:40;97883.44;;;21.03;86.96
34586;BME280;20816;50.950;11.108;2023-09-18T01:07:10;97876.13;;;21.05;86.65
34586;BME280;20816;50.950;11.108;2023-09-18T01:09:37;97873.91;;;20.98;86.84
34586;BME280;20816;50.950;11.108;2023-09-18T01:12:10;97869.56;;;20.97;87.06
34586;BME280;20816;50.950;11.108;2023-09-18T01:14:57;97865.91;;;20.98;86.92
34586;BME280;20816;50.950;11.108;2023-09-18T01:17:26;97862.00;;;20.91;86.78
34586;BME280;20816;50.950;11.108;2023-09-18T01:19:53;97857.34;;;20.82;87.52
34586;BME280;20816;50.950;11.108;2023-09-18T01:22:19;97854.78;;;20.81;87.33
34586;BME280;20816;50.950;11.108;2023-09-18T01:24:48;97851.53;;;20.77;87.85
34586;BME280;20816;50.950;11.108;2023-09-18T01:27:16;97850.75;;;20.75;87.90
34586;BME280;20816;50.950;11.108;2023-09-18T01:29:47;97841.09;;;20.85;87.39
34586;BME280;20816;50.950;11.108;2023-09-18T01:32:14;97851.16;;;20.82;86.71
34586;BME280;20816;50.950;11.108;2023-09-18T01:34:49;97844.13;;;20.81;86.87
34586;BME280;20816;50.950;11.108;2023-09-18T01:37:23;97839.63;;;20.81;86.55
34586;BME280;20816;50.950;11.108;2023-09-18T01:39:51;97834.53;;;20.78;86.39
34586;BME280;20816;50.950;11.108;2023-09-18T01:42:19;97836.22;;;20.79;85.82
34586;BME280;20816;50.950;11.108;2023-09-18T01:44:47;97831.59;;;20.81;86.07
34586;BME280;20816;50.950;11.108;2023-09-18T01:47:16;97817.72;;;20.76;85.85
34586;BME280;20816;50.950;11.108;2023-09-18T01:49:44;97830.34;;;20.74;85.44
34586;BME280;20816;50.950;11.108;2023-09-18T01:52:10;97817.66;;;20.78;85.77
34586;BME280;20816;50.950;11.108;2023-09-18T01:54:37;97820.91;;;20.70;85.77
34586;BME280;20816;50.950;11.108;2023-09-18T01:57:04;97827.28;;;20.67;86.45
34586;BME280;20816;50.950;11.108;2023-09-18T01:59:31;97834.06;;;20.60;86.78
34586;BME280;20816;50.950;11.108;2023-09-18T02:01:58;97837.38;;;20.64;86.00
34586;BME280;20816;50.950;11.108;2023-09-18T02:04:26;97833.72;;;20.65;85.99
34586;BME280;20816;50.950;11.108;2023-09-18T02:07:13;97832.16;;;20.62;86.52
34586;BME280;20816;50.950;11.108;2023-09-18T02:09:41;97833.22;;;20.60;86.85
34586;BME280;20816;50.950;11.108;2023-09-18T02:12:07;97828.13;;;20.57;86.83
34586;BME280;20816;50.950;11.108;2023-09-18T02:14:34;97830.66;;;20.58;87.24
34586;BME280;20816;50.950;11.108;2023-09-18T02:17:01;97817.94;;;20.62;86.81
34586;BME280;20816;50.950;11.108;2023-09-18T02:19:28;97829.47;;;20.62;87.20
34586;BME280;20816;50.950;11.108;2023-09-18T02:21:57;97831.22;;;20.51;87.89
34586;BME280;20816;50.950;11.108;2023-09-18T02:24:24;97823.97;;;20.53;88.28
34586;BME280;20816;50.950;11.108;2023-09-18T02:26:51;97822.63;;;20.47;88.14
34586;BME280;20816;50.950;11.108;2023-09-18T02:29:18;97810.72;;;20.51;88.75
34586;BME280;20816;50.950;11.108;2023-09-18T02:31:45;97813.97;;;20.43;89.59
34586;BME280;20816;50.950;11.108;2023-09-18T02:34:11;97808.16;;;20.50;89.24
34586;BME280;20816;50.950;11.108;2023-09-18T02:36:38;97801.88;;;20.51;89.72
34586;BME280;20816;50.950;11.108;2023-09-18T02:39:05;97803.91;;;20.47;89.79
34586;BME280;20816;50.950;11.108;2023-09-18T02:41:32;97794.34;;;20.45;90.07
34586;BME280;20816;50.950;11.108;2023-09-18T02:43:58;97794.63;;;20.53;89.79
34586;BME280;20816;50.950;11.108;2023-09-18T02:46:25;97790.00;;;20.55;89.60
34586;BME280;20816;50.950;11.108;2023-09-18T02:48:52;97788.41;;;20.52;89.94
34586;BME280;20816;50.950;11.108;2023-09-18T02:51:19;97789.38;;;20.51;90.15
34586;BME280;20816;50.950;11.108;2023-09-18T02:53:46;97790.44;;;20.49;90.28
34586;BME280;20816;50.950;11.108;2023-09-18T02:56:13;97793.25;;;20.47;90.71
34586;BME280;20816;50.950;11.108;2023-09-18T02:58:40;97796.75;;;20.48;90.60
34586;BME280;20816;50.950;11.108;2023-09-18T03:01:07;97795.06;;;20.47;90.44
34586;BME280;20816;50.950;11.108;2023-09-18T03:03:34;97801.38;;;20.46;90.32
34586;BME280;20816;50.950;11.108;2023-09-18T03:06:02;97796.44;;;20.39;90.96
34586;BME280;20816;50.950;11.108;2023-09-18T03:08:30;97796.91;;;20.33;90.62
34586;BME280;20816;50.950;11.108;2023-09-18T03:10:57;97777.25;;;20.34;90.56
34586;BME280;20816;50.950;11.108;2023-09-18T03:13:26;97772.38;;;20.28;90.31
34586;BME280;20816;50.950;11.108;2023-09-18T03:15:53;97776.06;;;20.38;89.57
34586;BME280;20816;50.950;11.108;2023-09-18T03:18:20;97761.03;;;20.37;89.83
34586;BME280;20816;50.950;11.108;2023-09-18T03:20:47;97765.59;;;20.35;89.13
34586;BME280;20816;50.950;11.108;2023-09-18T03:23:14;97757.84;;;20.32;89.38
34586;BME280;20816;50.950;11.108;2023-09-18T03:25:41;97744.56;;;20.43;89.29
34586;BME280;20816;50.950;11.108;2023-09-18T03:28:17;97745.00;;;20.37;89.52
34586;BME280;20816;50.950;11.108;2023-09-18T03:30:44;97748.47;;;20.27;89.64
34586;BME280;20816;50.950;11.108;2023-09-18T03:33:10;97753.59;;;20.30;89.19
34586;BME280;20816;50.950;11.108;2023-09-18T03:35:50;97742.91;;;20.30;89.39
34586;BME280;20816;50.950;11.108;2023-09-18T03:38:17;97737.97;;;20.36;88.85
34586;BME280;20816;50.950;11.108;2023-09-18T03:40:44;97724.38;;;20.39;88.77
34586;BME280;20816;50.950;11.108;2023-09-18T03:43:11;97720.97;;;20.37;88.41
34586;BME280;20816;50.950;11.108;2023-09-18T03:45:39;97717.91;;;20.31;88.81
34586;BME280;20816;50.950;11.108;2023-09-18T03:48:10;97724.22;;;20.30;88.52
34586;BME280;20816;50.950;11.108;2023-09-18T03:50:37;97721.44;;;20.31;88.12
34586;BME280;20816;50.950;11.108;2023-09-18T03:53:06;97713.19;;;20.34;87.06
34586;BME280;20816;50.950;11.108;2023-09-18T03:55:33;97712.97;;;20.37;86.57
34586;BME280;20816;50.950;11.108;2023-09-18T03:58:00;97711.94;;;20.27;86.08
34586;BME280;20816;50.950;11.108;2023-09-18T04:00:27;97709.28;;;20.27;85.77
34586;BME280;20816;50.950;11.108;2023-09-18T04:02:53;97701.53;;;20.35;85.25
34586;BME280;20816;50.950;11.108;2023-09-18T04:05:20;97709.91;;;20.31;85.31
34586;BME280;20816;50.950;11.108;2023-09-18T04:07:47;97710.38;;;20.25;85.39
34586;BME280;20816;50.950;11.108;2023-09-18T04:10:14;97700.72;;;20.11;86.38
34586;BME280;20816;50.950;11.108;2023-09-18T04:12:51;97712.59;;;20.07;86.43
34586;BME280;20816;50.950;11.108;2023-09-18T04:15:18;97712.72;;;20.05;86.73
34586;BME280;20816;50.950;11.108;2023-09-18T04:17:45;97703.81;;;19.94;86.43
34586;BME280;20816;50.950;11.108;2023-09-18T04:20:13;97682.41;;;20.06;85.75
34586;BME280;20816;50.950;11.108;2023-09-18T04:22:44;97687.38;;;20.11;85.26
34586;BME280;20816;50.950;11.108;2023-09-18T04:25:12;97678.91;;;20.06;85.54
34586;BME280;20816;50.950;11.108;2023-09-18T04:27:39;97677.25;;;20.27;84.23
34586;BME280;20816;50.950;11.108;2023-09-18T04:30:07;97670.28;;;20.37;83.75
34586;BME280;20816;50.950;11.108;2023-09-18T04:32:37;97656.16;;;20.35;83.70
34586;BME280;20816;50.950;11.108;2023-09-18T04:35:05;97666.25;;;20.32;83.94
34586;BME280;20816;50.950;11.108;2023-09-18T04:37:36;97671.66;;;20.19;84.98
34586;BME280;20816;50.950;11.108;2023-09-18T04:40:05;97681.97;;;20.12;84.98
34586;BME280;20816;50.950;11.108;2023-09-18T04:42:36;97670.88;;;20.06;85.61
34586;BME280;20816;50.950;11.108;2023-09-18T04:45:04;97675.28;;;20.18;85.68
34586;BME280;20816;50.950;11.108;2023-09-18T04:47:31;97670.88;;;20.06;86.00
34586;BME280;20816;50.950;11.108;2023-09-18T04:49:58;97665.75;;;20.03;85.74
34586;BME280;20816;50.950;11.108;2023-09-18T04:52:25;97661.75;;;19.97;86.34
34586;BME280;20816;50.950;11.108;2023-09-18T04:54:51;97648.31;;;19.99;86.33
34586;BME280;20816;50.950;11.108;2023-09-18T04:57:18;97651.00;;;20.10;85.90
34586;BME280;20816;50.950;11.108;2023-09-18T04:59:45;97645.47;;;20.24;85.62
34586;BME280;20816;50.950;11.108;2023-09-18T05:02:12;97647.44;;;20.33;85.21
34586;BME280;20816;50.950;11.108;2023-09-18T05:04:39;97655.03;;;20.51;84.42
34586;BME280;20816;50.950;11.108;2023-09-18T05:07:06;97662.34;;;20.71;84.04
34586;BME280;20816;50.950;11.108;2023-09-18T05:09:32;97689.09;;;20.93;82.67
34586;BME280;20816;50.950;11.108;2023-09-18T05:12:03;97711.56;;;21.02;82.75
34586;BME280;20816;50.950;11.108;2023-09-18T05:14:31;97700.03;;;21.13;81.81
34586;BME280;20816;50.950;11.108;2023-09-18T05:16:58;97695.06;;;21.31;81.27
34586;BME280;20816;50.950;11.108;2023-09-18T05:19:24;97691.03;;;21.25;81.92
34586;BME280;20816;50.950;11.108;2023-09-18T05:21:51;97677.34;;;21.30;82.00
34586;BME280;20816;50.950;11.108;2023-09-18T05:24:18;97663.97;;;21.30;81.95
34586;BME280;20816;50.950;11.108;2023-09-18T05:26:53;97654.84;;;21.32;81.88
34586;BME280;20816;50.950;11.108;2023-09-18T05:29:20;97647.66;;;21.44;81.94
34586;BME280;20816;50.950;11.108;2023-09-18T05:31:47;97638.91;;;21.42;82.77
34586;BME280;20816;50.950;11.108;2023-09-18T05:34:13;97629.53;;;21.47;82.17
34586;BME280;20816;50.950;11.108;2023-09-18T05:36:40;97634.66;;;21.50;82.28
34586;BME280;20816;50.950;11.108;2023-09-18T05:39:07;97613.94;;;21.64;82.31
34586;BME280;20816;50.950;11.108;2023-09-18T05:41:38;97603.88;;;21.88;81.27
34586;BME280;20816;50.950;11.108;2023-09-18T05:44:05;97602.13;;;21.98;81.19
34586;BME280;20816;50.950;11.108;2023-09-18T05:46:34;97600.88;;;22.14;80.56
34586;BME280;20816;50.950;11.108;2023-09-18T05:49:04;97593.28;;;22.19;80.32
34586;BME280;20816;50.950;11.108;2023-09-18T05:51:31;97600.34;;;22.20;80.42
34586;BME280;20816;50.950;11.108;2023-09-18T05:53:59;97605.97;;;22.17;80.92
34586;BME280;20816;50.950;11.108;2023-09-18T05:56:26;97613.25;;;22.15;81.57
34586;BME280;20816;50.950;11.108;2023-09-18T05:58:53;97609.09;;;22.22;82.18
34586;BME280;20816;50.950;11.108;2023-09-18T06:01:22;97601.19;;;22.20;82.58
34586;BME280;20816;50.950;11.108;2023-09-18T06:03:49;97595.25;;;22.17;82.92
34586;BME280;20816;50.950;11.108;2023-09-18T06:06:15;97599.16;;;22.13;82.76
34586;BME280;20816;50.950;11.108;2023-09-18T06:08:42;97584.38;;;22.08;82.82
34586;BME280;20816;50.950;11.108;2023-09-18T06:11:09;97577.75;;;22.13;82.91
34586;BME280;20816;50.950;11.108;2023-09-18T06:13:35;97579.72;;;22.10;82.58
34586;BME280;20816;50.950;11.108;2023-09-18T06:16:05;97576.69;;;22.04;83.29
34586;BME280;20816;50.950;11.108;2023-09-18T06:18:34;97580.41;;;21.92;84.67
34586;BME280;20816;50.950;11.108;2023-09-18T06:21:02;97574.72;;;21.85;85.67
34586;BME280;20816;50.950;11.108;2023-09-18T06:23:29;97586.97;;;21.88;86.16
34586;BME280;20816;50.950;11.108;2023-09-18T06:25:56;97569.38;;;21.85;86.24
34586;BME280;20816;50.950;11.108;2023-09-18T06:28:23;97578.41;;;21.73;86.88
34586;BME280;20816;50.950;11.108;2023-09-18T06:30:49;97592.13;;;21.79;86.27
34586;BME280;20816;50.950;11.108;2023-09-18T06:33:16;97589.44;;;21.79;85.67
34586;BME280;20816;50.950;11.108;2023-09-18T06:35:43;97583.13;;;21.80;85.61
34586;BME280;20816;50.950;11.108;2023-09-18T06:38:10;97581.94;;;21.73;87.22
34586;BME280;20816;50.950;11.108;2023-09-18T06:40:39;97578.47;;;21.62;88.15
34586;BME280;20816;50.950;11.108;2023-09-18T06:43:05;97580.91;;;21.53;89.46
34586;BME280;20816;50.950;11.108;2023-09-18T06:45:32;97579.03;;;21.33;89.62
34586;BME280;20816;50.950;11.108;2023-09-18T06:48:00;97581.59;;;21.35;90.82
34586;BME280;20816;50.950;11.108;2023-09-18T06:50:27;97569.56;;;21.18;93.97
34586;BME280;20816;50.950;11.108;2023-09-18T06:52:53;97567.16;;;21.04;95.18
34586;BME280;20816;50.950;11.108;2023-09-18T06:55:20;97565.81;;;20.98;94.89
34586;BME280;20816;50.950;11.108;2023-09-18T06:57:47;97583.41;;;21.00;95.05
34586;BME280;20816;50.950;11.108;2023-09-18T07:00:15;97582.09;;;21.06;95.28
34586;BME280;20816;50.950;11.108;2023-09-18T07:02:45;97586.94;;;21.12;94.08
34586;BME280;20816;50.950;11.108;2023-09-18T07:05:12;97594.09;;;21.23;92.96
34586;BME280;20816;50.950;11.108;2023-09-18T07:07:38;97591.19;;;21.15;92.68
34586;BME280;20816;50.950;11.108;2023-09-18T07:10:05;97585.09;;;21.24;91.79
34586;BME280;20816;50.950;11.108;2023-09-18T07:12:32;97587.16;;;21.32;91.32
34586;BME280;20816;50.950;11.108;2023-09-18T07:15:00;97584.13;;;21.36;90.60
34586;BME280;20816;50.950;11.108;2023-09-18T07:17:31;97580.84;;;21.44;90.08
34586;BME280;20816;50.950;11.108;2023-09-18T07:19:58;97564.41;;;21.48;89.42
34586;BME280;20816;50.950;11.108;2023-09-18T07:22:25;97542.56;;;21.43;89.53
34586;BME280;20816;50.950;11.108;2023-09-18T07:24:54;97551.38;;;21.55;89.04
34586;BME280;20816;50.950;11.108;2023-09-18T07:27:21;97548.84;;;21.53;89.27
34586;BME280;20816;50.950;11.108;2023-09-18T07:29:47;97544.91;;;21.58;88.97
34586;BME280;20816;50.950;11.108;2023-09-18T07:32:15;97540.09;;;21.51;90.28
34586;BME280;20816;50.950;11.108;2023-09-18T07:35:02;97530.88;;;21.44;90.00
34586;BME280;20816;50.950;11.108;2023-09-18T07:37:31;97525.53;;;21.44;89.97
34586;BME280;20816;50.950;11.108;2023-09-18T07:39:58;97517.97;;;21.49;89.12
34586;BME280;20816;50.950;11.108;2023-09-18T07:42:25;97525.97;;;21.61;88.61
34586;BME280;20816;50.950;11.108;2023-09-18T07:44:53;97534.91;;;21.71;88.02
34586;BME280;20816;50.950;11.108;2023-09-18T07:47:21;97540.31;;;21.80;86.83
34586;BME280;20816;50.950;11.108;2023-09-18T07:49:48;97552.72;;;21.81;87.06
34586;BME280;20816;50.950;11.108;2023-09-18T07:52:16;97555.28;;;21.83;86.79
34586;BME280;20816;50.950;11.108;2023-09-18T07:54:43;97562.38;;;21.94;86.61
34586;BME280;20816;50.950;11.108;2023-09-18T07:57:10;97560.41;;;21.96;87.12
34586;BME280;20816;50.950;11.108;2023-09-18T07:59:37;97570.16;;;21.97;87.39
34586;BME280;20816;50.950;11.108;2023-09-18T08:02:06;97563.94;;;21.96;87.04
34586;BME280;20816;50.950;11.108;2023-09-18T08:04:32;97586.91;;;21.99;87.18
34586;BME280;20816;50.950;11.108;2023-09-18T08:06:59;97587.31;;;21.94;87.71
34586;BME280;20816;50.950;11.108;2023-09-18T08:09:27;97589.84;;;21.96;87.56
34586;BME280;20816;50.950;11.108;2023-09-18T08:11:55;97598.72;;;21.96;88.18
34586;BME280;20816;50.950;11.108;2023-09-18T08:14:22;97589.72;;;21.97;86.95
34586;BME280;20816;50.950;11.108;2023-09-18T08:16:56;97594.38;;;21.95;87.32
34586;BME280;20816;50.950;11.108;2023-09-18T08:19:24;97607.38;;;22.00;86.72
34586;BME280;20816;50.950;11.108;2023-09-18T08:21:55;97611.84;;;22.10;85.98
34586;BME280;20816;50.950;11.108;2023-09-18T08:24:22;97620.13;;;22.07;86.44
34586;BME280;20816;50.950;11.108;2023-09-18T08:26:49;97611.00;;;22.10;86.00
34586;BME280;20816;50.950;11.108;2023-09-18T08:29:16;97619.56;;;22.25;85.50
34586;BME280;20816;50.950;11.108;2023-09-18T08:31:44;97620.47;;;22.35;85.06
34586;BME280;20816;50.950;11.108;2023-09-18T08:34:11;97619.47;;;22.36;86.04
34586;BME280;20816;50.950;11.108;2023-09-18T08:36:37;97626.19;;;22.51;85.44
34586;BME280;20816;50.950;11.108;2023-09-18T08:39:04;97625.13;;;22.63;84.64
34586;BME280;20816;50.950;11.108;2023-09-18T08:41:38;97634.63;;;22.67;84.38
34586;BME280;20816;50.950;11.108;2023-09-18T08:44:08;97637.16;;;22.90;83.02
34586;BME280;20816;50.950;11.108;2023-09-18T08:46:37;97638.34;;;22.97;83.68
34586;BME280;20816;50.950;11.108;2023-09-18T08:49:04;97647.91;;;23.00;83.00
34586;BME280;20816;50.950;11.108;2023-09-18T08:51:32;97645.84;;;23.13;82.98
34586;BME280;20816;50.950;11.108;2023-09-18T08:54:00;97654.38;;;23.28;81.91
34586;BME280;20816;50.950;11.108;2023-09-18T08:56:27;97656.91;;;23.69;81.02
34586;BME280;20816;50.950;11.108;2023-09-18T08:58:54;97645.06;;;23.91;78.67
34586;BME280;20816;50.950;11.108;2023-09-18T09:01:23;97651.28;;;24.01;77.72
34586;BME280;20816;50.950;11.108;2023-09-18T09:03:49;97653.28;;;23.99;76.87
34586;BME280;20816;50.950;11.108;2023-09-18T09:06:16;97654.25;;;23.89;76.65
34586;BME280;20816;50.950;11.108;2023-09-18T09:08:46;97652.66;;;23.67;77.65
34586;BME280;20816;50.950;11.108;2023-09-18T09:11:13;97651.53;;;23.69;78.21
34586;BME280;20816;50.950;11.108;2023-09-18T09:13:40;97659.13;;;23.55;77.94
34586;BME280;20816;50.950;11.108;2023-09-18T09:16:12;97666.88;;;23.58;77.40
34586;BME280;20816;50.950;11.108;2023-09-18T09:18:50;97655.22;;;23.68;78.27
34586;BME280;20816;50.950;11.108;2023-09-18T09:21:18;97662.56;;;23.66;77.64
34586;BME280;20816;50.950;11.108;2023-09-18T09:23:50;97660.03;;;23.74;77.51
34586;BME280;20816;50.950;11.108;2023-09-18T09:26:22;97661.72;;;23.75;78.26
34586;BME280;20816;50.950;11.108;2023-09-18T09:28:49;97663.16;;;23.80;77.13
34586;BME280;20816;50.950;11.108;2023-09-18T09:31:28;97669.78;;;23.75;77.24
34586;BME280;20816;50.950;11.108;2023-09-18T09:33:56;97667.53;;;23.81;76.63
34586;BME280;20816;50.950;11.108;2023-09-18T09:36:23;97662.03;;;23.92;77.05
34586;BME280;20816;50.950;11.108;2023-09-18T09:38:56;97664.44;;;23.95;76.96
34586;BME280;20816;50.950;11.108;2023-09-18T09:41:25;97671.06;;;23.91;78.22
34586;BME280;20816;50.950;11.108;2023-09-18T09:43:55;97673.47;;;23.94;77.78
34586;BME280;20816;50.950;11.108;2023-09-18T09:46:23;97672.50;;;23.95;78.64
34586;BME280;20816;50.950;11.108;2023-09-18T09:49:05;97671.63;;;23.94;77.14
34586;BME280;20816;50.950;11.108;2023-09-18T09:51:33;97651.00;;;23.85;77.88
34586;BME280;20816;50.950;11.108;2023-09-18T09:54:00;97653.81;;;23.84;75.84
34586;BME280;20816;50.950;11.108;2023-09-18T09:57:01;97658.91;;;23.77;75.91
34586;BME280;20816;50.950;11.108;2023-09-18T09:59:29;97651.53;;;23.69;76.81
34586;BME280;20816;50.950;11.108;2023-09-18T10:01:59;97643.78;;;23.66;76.42
34586;BME280;20816;50.950;11.108;2023-09-18T10:04:31;97648.09;;;23.58;76.61
34586;BME280;20816;50.950;11.108;2023-09-18T10:07:05;97637.72;;;23.64;76.10
34586;BME280;20816;50.950;11.108;2023-09-18T10:09:39;97636.88;;;23.73;75.07
34586;BME280;20816;50.950;11.108;2023-09-18T10:12:11;97639.16;;;23.88;75.14
34586;BME280;20816;50.950;11.108;2023-09-18T10:14:38;97629.69;;;24.03;74.76
34586;BME280;20816;50.950;11.108;2023-09-18T10:17:25;97628.81;;;23.93;74.61
34586;BME280;20816;50.950;11.108;2023-09-18T10:20:12;97633.50;;;23.91;74.48
34586;BME280;20816;50.950;11.108;2023-09-18T10:22:49;97637.59;;;23.95;74.20
34586;BME280;20816;50.950;11.108;2023-09-18T10:25:27;97628.13;;;23.91;74.67
34586;BME280;20816;50.950;11.108;2023-09-18T10:27:55;97630.81;;;23.91;74.48
34586;BME280;20816;50.950;11.108;2023-09-18T10:30:25;97623.19;;;24.05;73.66
34586;BME280;20816;50.950;11.108;2023-09-18T10:32:53;97632.94;;;24.16;74.05
34586;BME280;20816;50.950;11.108;2023-09-18T10:35:21;97630.09;;;24.27;73.19
34586;BME280;20816;50.950;11.108;2023-09-18T10:37:49;97641.97;;;24.15;73.67
34586;BME280;20816;50.950;11.108;2023-09-18T10:40:20;97624.31;;;24.03;74.00
34586;BME280;20816;50.950;11.108;2023-09-18T10:42:50;97638.28;;;24.26;74.35
34586;BME280;20816;50.950;11.108;2023-09-18T10:45:17;97641.97;;;24.35;73.50
34586;BME280;20816;50.950;11.108;2023-09-18T10:47:46;97637.59;;;24.33;73.80
34586;BME280;20816;50.950;11.108;2023-09-18T10:50:26;97634.06;;;24.23;75.16
34586;BME280;20816;50.950;11.108;2023-09-18T10:52:53;97632.94;;;24.16;74.43
34586;BME280;20816;50.950;11.108;2023-09-18T10:55:21;97637.16;;;24.09;74.77
34586;BME280;20816;50.950;11.108;2023-09-18T10:57:56;97637.31;;;23.98;75.12
34586;BME280;20816;50.950;11.108;2023-09-18T11:00:27;97645.38;;;23.98;76.09
34586;BME280;20816;50.950;11.108;2023-09-18T11:03:10;97653.28;;;24.09;74.57
34586;BME280;20816;50.950;11.108;2023-09-18T11:05:37;97660.91;;;24.04;74.88
34586;BME280;20816;50.950;11.108;2023-09-18T11:11:09;97642.53;;;23.90;75.78
34586;BME280;20816;50.950;11.108;2023-09-18T11:13:43;97640.28;;;24.04;75.66
34586;BME280;20816;50.950;11.108;2023-09-18T11:16:15;97647.91;;;24.09;75.88
34586;BME280;20816;50.950;11.108;2023-09-18T11:18:50;97644.22;;;24.10;76.68
34586;BME280;20816;50.950;11.108;2023-09-18T11:21:24;97643.41;;;24.19;76.56
34586;BME280;20816;50.950;11.108;2023-09-18T11:24:05;97638.88;;;24.29;75.30
34586;BME280;20816;50.950;11.108;2023-09-18T11:26:34;97646.66;;;24.32;75.71
34586;BME280;20816;50.950;11.108;2023-09-18T11:29:04;97650.88;;;24.25;76.67
34586;BME280;20816;50.950;11.108;2023-09-18T11:31:46;97669.66;;;24.25;76.45
34586;BME280;20816;50.950;11.108;2023-09-18T11:34:15;97677.72;;;24.16;77.74
34586;BME280;20816;50.950;11.108;2023-09-18T11:36:42;97686.06;;;24.22;78.11
34586;BME280;20816;50.950;11.108;2023-09-18T11:39:10;97673.50;;;24.13;79.70
34586;BME280;20816;50.950;11.108;2023-09-18T11:41:38;97669.22;;;24.01;81.65
34586;BME280;20816;50.950;11.108;2023-09-18T11:46:45;97677.47;;;23.59;83.48
34586;BME280;20816;50.950;11.108;2023-09-18T11:49:12;97698.72;;;23.62;84.31
34586;BME280;20816;50.950;11.108;2023-09-18T11:51:39;97693.06;;;23.75;81.16
34586;BME280;20816;50.950;11.108;2023-09-18T11:54:07;97702.41;;;23.81;81.54
34586;BME280;20816;50.950;11.108;2023-09-18T11:56:34;97700.44;;;23.83;81.76
34586;BME280;20816;50.950;11.108;2023-09-18T11:59:01;97692.22;;;23.74;81.84
34586;BME280;20816;50.950;11.108;2023-09-18T12:01:31;97685.16;;;23.73;81.64
34586;BME280;20816;50.950;11.108;2023-09-18T12:04:03;97700.44;;;23.83;80.53
34586;BME280;20816;50.950;11.108;2023-09-18T12:06:35;97702.09;;;23.64;81.83
34586;BME280;20816;50.950;11.108;2023-09-18T12:09:06;97704.09;;;23.62;81.19
34586;BME280;20816;50.950;11.108;2023-09-18T12:11:33;97705.69;;;23.54;82.36
34586;BME280;20816;50.950;11.108;2023-09-18T12:14:02;97699.13;;;23.37;82.70
34586;BME280;20816;50.950;11.108;2023-09-18T12:16:37;97701.13;;;23.35;83.07
34586;BME280;20816;50.950;11.108;2023-09-18T12:19:06;97702.63;;;23.28;82.81
34586;BME280;20816;50.950;11.108;2023-09-18T12:21:40;97698.94;;;23.19;83.14
34586;BME280;20816;50.950;11.108;2023-09-18T12:24:13;97696.84;;;23.23;83.18
34586;BME280;20816;50.950;11.108;2023-09-18T12:26:40;97706.13;;;23.18;83.22
34586;BME280;20816;50.950;11.108;2023-09-18T12:29:08;97703.44;;;23.18;83.50
34586;BME280;20816;50.950;11.108;2023-09-18T12:31:35;97695.50;;;23.07;82.15
34586;BME280;20816;50.950;11.108;2023-09-18T12:34:01;97697.00;;;23.00;82.97
34586;BME280;20816;50.950;11.108;2023-09-18T12:36:28;97705.16;;;22.89;85.01
34586;BME280;20816;50.950;11.108;2023-09-18T12:38:57;97720.19;;;22.69;88.09
34586;BME280;20816;50.950;11.108;2023-09-18T12:41:25;97733.91;;;22.55;86.27
34586;BME280;20816;50.950;11.108;2023-09-18T12:43:58;97733.19;;;22.32;86.95
34586;BME280;20816;50.950;11.108;2023-09-18T12:46:25;97737.22;;;22.15;87.13
34586;BME280;20816;50.950;11.108;2023-09-18T12:48:52;97741.63;;;22.16;89.33
34586;BME280;20816;50.950;11.108;2023-09-18T12:51:29;97754.16;;;22.16;90.28
34586;BME280;20816;50.950;11.108;2023-09-18T12:54:01;97749.78;;;22.03;90.94
34586;BME280;20816;50.950;11.108;2023-09-18T12:56:40;97740.78;;;22.04;93.02
34586;BME280;20816;50.950;11.108;2023-09-18T12:59:06;97740.09;;;21.91;94.96
34586;BME280;20816;50.950;11.108;2023-09-18T13:01:46;97735.25;;;21.74;94.86
34586;BME280;20816;50.950;11.108;2023-09-18T13:04:14;97729.16;;;21.72;99.62